Time;durP1;ratioP1;P1;durP2;ratioP2;P2;SDS_P1;SDS_P2;PMS_P1;PMS_P2;Temp;Humidity;BMP_temperature;BMP_pressure;BME280_temperature;BME280_humidity;BME280_pressure;Samples;Min_cycle;Max_cycle;Signal;HPM_P1;HPM_P2
2023/04/05 00:00:11;;;;;;;;;;;6.50;90.80;7.00;99826.00;;;;339399;28;88056;-91
2023/04/05 00:00:23;;;;;;;;;;;6.60;90.80;7.10;99830.00;;;;340798;28;90478;-91
2023/04/05 00:00:35;;;;;;;;;;;6.50;90.80;7.10;99823.00;;;;337916;28;86303;-91
2023/04/05 00:00:47;;;;;;;;;;;6.60;90.80;7.10;99830.00;;;;338516;28;89329;-91
2023/04/05 00:00:59;;;;;;;;;;;6.50;90.80;7.10;99818.00;;;;336831;28;86846;-91
2023/04/05 00:01:11;;;;;;;;;;;6.50;90.80;7.10;99832.00;;;;340876;28;90845;-91
2023/04/05 00:01:24;;;;;;;;;;;6.60;91.20;6.90;99832.00;;;;340685;28;87059;-91
2023/04/05 00:01:36;;;;;;;;;;;6.60;90.80;6.90;99835.00;;;;337126;28;88754;-91
2023/04/05 00:01:49;;;;;;;;;;;6.60;90.90;6.90;99838.00;;;;338126;28;87037;-90
2023/04/05 00:02:00;;;;;;;;;;;6.60;90.80;7.00;99837.00;;;;336995;28;87678;-91
2023/04/05 00:02:12;;;;;;;;;;;6.60;90.90;7.00;99826.00;;;;339513;28;86289;-90
2023/04/05 00:02:28;;;;;;;;;;;6.50;90.80;7.00;99829.00;;;;341396;28;86503;-91
2023/04/05 00:02:41;;;;;;;;;;;6.50;91.00;7.00;99832.00;;;;339242;28;87043;-91
2023/04/05 00:02:54;;;;;;;;;;;6.50;91.00;6.90;99839.00;;;;338580;28;87850;-91
2023/04/05 00:03:08;;;;;;;;;;;6.50;91.00;6.90;99838.00;;;;337034;28;87262;-91
2023/04/05 00:03:20;;;;;;;;;;;6.50;91.20;7.00;99830.00;;;;340784;28;87545;-91
2023/04/05 00:03:33;;;;;;;;;;;6.50;91.10;6.90;99830.00;;;;340928;28;87883;-91
2023/04/05 00:03:46;;;;;;;;;;;6.50;91.10;6.90;99835.00;;;;340154;28;90257;-90
2023/04/05 00:03:58;;;;;;;;;;;6.40;91.00;6.90;99827.00;;;;338699;28;86069;-91
2023/04/05 00:04:11;;;;;;;;;;;6.50;91.00;6.90;99835.00;;;;340138;28;89035;-91
2023/04/05 00:04:25;;;;;;;;;;;6.50;91.00;6.90;99841.00;;;;338739;28;86071;-90
2023/04/05 00:04:48;;;;;;;;;;;6.40;91.00;6.90;99834.00;;;;339067;28;87203;-92
2023/04/05 00:05:02;;;;;;;;;;;6.50;91.00;6.90;99838.00;;;;341580;28;86139;-91
2023/04/05 00:05:13;;;;;;;;;;;6.50;91.00;6.90;99841.00;;;;340413;28;86519;-90
2023/04/05 00:05:29;;;;;;;;;;;6.50;91.10;6.90;99836.00;;;;337606;28;86013;-90
2023/04/05 00:05:41;;;;;;;;;;;6.50;91.20;6.90;99839.00;;;;341488;28;89809;-91
2023/04/05 00:05:54;;;;;;;;;;;6.40;91.10;6.90;99831.00;;;;341511;28;86086;-90
2023/04/05 00:06:06;;;;;;;;;;;6.50;91.20;6.90;99839.00;;;;337710;28;88142;-90
2023/04/05 00:06:25;;;;;;;;;;;6.40;91.10;6.90;99842.00;;;;338647;28;86426;-91
2023/04/05 00:06:38;;;;;;;;;;;6.50;91.10;7.00;99841.00;;;;337654;28;86509;-91
2023/04/05 00:06:51;;;;;;;;;;;6.50;91.10;6.90;99831.00;;;;338610;28;85636;-89
2023/04/05 00:07:07;;;;;;;;;;;6.40;91.10;6.90;99838.00;;;;341730;28;86685;-90
2023/04/05 00:07:20;;;;;;;;;;;6.50;91.20;6.90;99856.00;;;;341754;28;85940;-91
2023/04/05 00:07:33;;;;;;;;;;;6.40;91.10;7.00;99844.00;;;;337938;28;85879;-91
2023/04/05 00:07:46;;;;;;;;;;;6.40;91.10;7.00;99831.00;;;;337550;28;86806;-91
2023/04/05 00:08:00;;;;;;;;;;;6.40;91.00;6.90;99838.00;;;;338862;28;87486;-92
2023/04/05 00:08:17;;;;;;;;;;;6.40;91.10;7.00;99842.00;;;;337070;28;86898;-91
2023/04/05 00:08:29;;;;;;;;;;;6.40;91.10;6.90;99842.00;;;;339933;28;87281;-91
2023/04/05 00:08:43;;;;;;;;;;;6.40;91.10;6.80;99831.00;;;;339523;28;86201;-92
2023/04/05 00:08:56;;;;;;;;;;;6.40;91.10;6.90;99840.00;;;;339946;28;88467;-92
2023/04/05 00:09:08;;;;;;;;;;;6.40;91.10;7.00;99833.00;;;;340938;28;86155;-91
2023/04/05 00:09:20;;;;;;;;;;;6.40;91.10;7.00;99847.00;;;;338491;28;86891;-91
2023/04/05 00:09:32;;;;;;;;;;;6.40;91.10;7.00;99838.00;;;;336715;28;86175;-92
2023/04/05 00:09:44;;;;;;;;;;;6.40;91.10;7.00;99837.00;;;;340841;28;90090;-92
2023/04/05 00:09:56;;;;;;;;;;;6.40;91.10;7.00;99840.00;;;;340772;28;87105;-92
2023/04/05 00:10:08;;;;;;;;;;;6.40;91.10;7.00;99846.00;;;;339977;28;87227;-93
2023/04/05 00:10:21;;;;;;;;;;;6.40;91.10;6.90;99832.00;;;;338505;28;86914;-91
2023/04/05 00:10:33;;;;;;;;;;;6.40;91.20;6.90;99843.00;;;;340976;28;88425;-91
2023/04/05 00:10:45;;;;;;;;;;;6.50;91.20;7.00;99838.00;;;;342142;28;86229;-91
2023/04/05 00:10:57;;;;;;;;;;;6.40;91.10;7.00;99836.00;;;;341372;28;87372;-92
2023/04/05 00:11:09;;;;;;;;;;;6.40;91.20;7.00;99830.00;;;;341984;28;86312;-92
2023/04/05 00:11:21;;;;;;;;;;;6.40;91.20;7.00;99839.00;;;;341079;28;86854;-92
2023/04/05 00:11:33;;;;;;;;;;;6.40;91.20;6.90;99842.00;;;;336597;28;87114;-90
2023/04/05 00:11:46;;;;;;;;;;;6.40;91.30;6.90;99851.00;;;;339792;28;90522;-91
2023/04/05 00:11:58;;;;;;;;;;;6.40;91.20;6.90;99843.00;;;;338166;28;87397;-92
2023/04/05 00:12:10;;;;;;;;;;;6.40;91.20;6.90;99844.00;;;;340018;28;87314;-91
2023/04/05 00:12:25;;;;;;;;;;;6.40;91.10;6.90;99854.00;;;;340937;28;86001;-90
2023/04/05 00:12:36;;;;;;;;;;;6.40;91.10;6.90;99835.00;;;;338356;28;87782;-92
2023/04/05 00:12:49;;;;;;;;;;;6.40;91.10;6.90;99831.00;;;;338296;28;86813;-92
2023/04/05 00:13:01;;;;;;;;;;;6.40;91.10;7.00;99841.00;;;;335819;28;88943;-91
2023/04/05 00:13:14;;;;;;;;;;;6.40;91.10;7.00;99841.00;;;;337091;28;86055;-91
2023/04/05 00:13:26;;;;;;;;;;;6.40;91.20;6.90;99833.00;;;;339611;28;88508;-91
2023/04/05 00:13:38;;;;;;;;;;;6.40;91.10;6.90;99837.00;;;;335661;29;86148;-91
2023/04/05 00:13:49;;;;;;;;;;;6.40;91.10;6.90;99841.00;;;;341140;28;89899;-91
2023/04/05 00:14:01;;;;;;;;;;;6.40;91.10;6.90;99837.00;;;;339427;28;86084;-91
2023/04/05 00:14:14;;;;;;;;;;;6.40;91.10;6.80;99846.00;;;;337062;28;87633;-91
2023/04/05 00:14:26;;;;;;;;;;;6.40;91.10;6.70;99837.00;;;;338187;28;87013;-92
2023/04/05 00:14:38;;;;;;;;;;;6.40;91.10;6.70;99840.00;;;;339715;28;88899;-91
2023/04/05 00:14:50;;;;;;;;;;;6.40;91.10;6.80;99837.00;;;;334611;28;87026;-92
2023/04/05 00:15:03;;;;;;;;;;;6.30;91.10;6.90;99836.00;;;;337010;28;89548;-91
2023/04/05 00:15:15;;;;;;;;;;;6.30;91.10;6.90;99844.00;;;;339312;28;86570;-92
2023/04/05 00:15:27;;;;;;;;;;;6.40;91.10;6.90;99837.00;;;;341094;28;89066;-91
2023/04/05 00:15:39;;;;;;;;;;;6.30;91.10;6.90;99848.00;;;;340578;28;87074;-90
2023/04/05 00:15:51;;;;;;;;;;;6.40;91.30;6.80;99847.00;;;;339636;28;89730;-91
2023/04/05 00:16:04;;;;;;;;;;;6.40;91.30;6.90;99833.00;;;;335555;29;86912;-91
2023/04/05 00:16:16;;;;;;;;;;;6.30;91.30;6.90;99838.00;;;;338385;28;90940;-91
2023/04/05 00:16:28;;;;;;;;;;;6.30;91.30;6.80;99834.00;;;;339503;28;85998;-91
2023/04/05 00:16:40;;;;;;;;;;;6.40;91.30;6.90;99836.00;;;;339473;28;87662;-91
2023/04/05 00:16:52;;;;;;;;;;;6.30;91.30;6.90;99842.00;;;;339404;28;87011;-91
2023/04/05 00:17:05;;;;;;;;;;;6.40;91.30;6.90;99845.00;;;;339425;28;87410;-92
2023/04/05 00:17:17;;;;;;;;;;;6.40;91.30;6.90;99838.00;;;;340727;28;85512;-92
2023/04/05 00:17:30;;;;;;;;;;;6.40;91.40;6.90;99835.00;;;;340805;28;87706;-91
2023/04/05 00:17:42;;;;;;;;;;;6.40;91.30;6.90;99835.00;;;;340588;28;87084;-90
2023/04/05 00:17:54;;;;;;;;;;;6.40;91.30;6.90;99846.00;;;;336839;28;90128;-91
2023/04/05 00:18:06;;;;;;;;;;;6.30;91.30;6.90;99842.00;;;;338098;28;86980;-91
2023/04/05 00:18:20;;;;;;;;;;;6.30;91.30;6.90;99838.00;;;;340899;28;90290;-92
2023/04/05 00:18:33;;;;;;;;;;;6.40;91.30;6.90;99843.00;;;;342036;28;87126;-91
2023/04/05 00:18:48;;;;;;;;;;;6.30;91.20;6.80;99837.00;;;;338066;28;89971;-91
2023/04/05 00:19:00;;;;;;;;;;;6.40;91.30;6.90;99840.00;;;;338163;28;86106;-91
2023/04/05 00:19:12;;;;;;;;;;;6.30;91.30;6.90;99836.00;;;;338362;28;88554;-91
2023/04/05 00:19:24;;;;;;;;;;;6.40;91.30;6.80;99835.00;;;;337130;28;85241;-92
2023/04/05 00:19:37;;;;;;;;;;;6.30;91.30;6.90;99843.00;;;;337846;28;86955;-92
2023/04/05 00:19:55;;;;;;;;;;;6.40;91.30;6.90;99844.00;;;;340649;28;86978;-92
2023/04/05 00:20:11;;;;;;;;;;;6.40;91.20;6.90;99836.00;;;;341119;28;86218;-91
2023/04/05 00:20:23;;;;;;;;;;;6.30;91.20;6.90;99846.00;;;;336792;28;86190;-91
2023/04/05 00:20:36;;;;;;;;;;;6.30;91.10;6.90;99840.00;;;;339801;28;87710;-91
2023/04/05 00:20:51;;;;;;;;;;;6.40;91.10;6.90;99840.00;;;;341001;28;86898;-92
2023/04/05 00:21:03;;;;;;;;;;;6.40;91.10;6.90;99831.00;;;;339625;28;90165;-92
2023/04/05 00:21:15;;;;;;;;;;;6.40;91.10;7.00;99836.00;;;;338276;28;86082;-91
2023/04/05 00:21:28;;;;;;;;;;;6.40;91.20;7.00;99840.00;;;;341142;28;87338;-92
2023/04/05 00:21:40;;;;;;;;;;;6.40;91.20;7.00;99838.00;;;;339405;28;85999;-92
2023/04/05 00:21:53;;;;;;;;;;;6.40;91.10;7.00;99840.00;;;;338223;28;86665;-91
2023/04/05 00:22:05;;;;;;;;;;;6.40;91.10;6.90;99834.00;;;;338292;28;86139;-92
2023/04/05 00:22:19;;;;;;;;;;;6.40;91.10;6.90;99835.00;;;;339961;28;87691;-91
2023/04/05 00:22:34;;;;;;;;;;;6.40;91.10;6.90;99837.00;;;;339751;28;86069;-92
2023/04/05 00:22:49;;;;;;;;;;;6.40;91.10;6.90;99833.00;;;;341302;28;87026;-91
2023/04/05 00:23:01;;;;;;;;;;;6.40;91.10;6.80;99842.00;;;;336906;28;86158;-92
2023/04/05 00:23:15;;;;;;;;;;;6.40;91.10;6.90;99837.00;;;;341380;28;87675;-92
2023/04/05 00:23:28;;;;;;;;;;;6.40;91.10;6.90;99834.00;;;;339633;28;87245;-91
2023/04/05 00:23:40;;;;;;;;;;;6.40;91.10;6.90;99835.00;;;;336950;28;87539;-91
2023/04/05 00:23:57;;;;;;;;;;;6.40;91.10;6.90;99844.00;;;;338412;28;86597;-92
2023/04/05 00:24:14;;;;;;;;;;;6.40;91.10;6.90;99829.00;;;;339310;28;85849;-92
2023/04/05 00:24:28;;;;;;;;;;;6.40;91.20;6.90;99832.00;;;;335469;29;87084;-91
2023/04/05 00:24:42;;;;;;;;;;;6.40;91.20;6.90;99827.00;;;;337140;28;89718;-92
2023/04/05 00:24:54;;;;;;;;;;;6.40;91.10;7.00;99840.00;;;;340939;28;87642;-91
2023/04/05 00:25:07;;;;;;;;;;;6.40;91.10;7.00;99826.00;;;;338267;28;89876;-92
2023/04/05 00:25:20;;;;;;;;;;;6.40;91.10;6.90;99826.00;;;;340955;28;87479;-92
2023/04/05 00:25:32;;;;;;;;;;;6.40;91.10;6.90;99828.00;;;;340787;28;88740;-92
2023/04/05 00:25:44;;;;;;;;;;;6.40;91.10;6.90;99830.00;;;;338312;28;86967;-92
2023/04/05 00:25:56;;;;;;;;;;;6.40;91.10;7.00;99837.00;;;;340793;28;89409;-91
2023/04/05 00:26:08;;;;;;;;;;;6.40;91.10;7.00;99831.00;;;;339538;28;87156;-92
2023/04/05 00:26:20;;;;;;;;;;;6.40;91.10;7.00;99828.00;;;;342371;28;89862;-91
2023/04/05 00:26:32;;;;;;;;;;;6.40;91.10;7.00;99843.00;;;;340896;28;86823;-92
2023/04/05 00:26:43;;;;;;;;;;;6.40;91.20;6.90;99835.00;;;;337380;28;87649;-93
2023/04/05 00:26:56;;;;;;;;;;;6.50;91.20;6.80;99824.00;;;;339790;28;86086;-93
2023/04/05 00:27:08;;;;;;;;;;;6.50;91.20;6.90;99834.00;;;;339908;28;86529;-91
2023/04/05 00:27:20;;;;;;;;;;;6.40;91.20;6.90;99830.00;;;;338276;28;86879;-91
2023/04/05 00:27:32;;;;;;;;;;;6.40;91.20;6.90;99824.00;;;;338561;28;86389;-91
2023/04/05 00:27:44;;;;;;;;;;;6.40;91.20;6.90;99838.00;;;;339598;28;86057;-91
2023/04/05 00:27:56;;;;;;;;;;;6.40;91.20;7.00;99837.00;;;;340473;28;87904;-91
2023/04/05 00:28:09;;;;;;;;;;;6.40;91.20;6.90;99830.00;;;;339495;28;86142;-92
2023/04/05 00:28:21;;;;;;;;;;;6.40;91.20;7.00;99833.00;;;;341003;28;87169;-91
2023/04/05 00:28:33;;;;;;;;;;;6.40;91.30;7.00;99834.00;;;;336740;28;86039;-91
2023/04/05 00:28:46;;;;;;;;;;;6.40;91.30;7.00;99850.00;;;;339625;28;88450;-91
2023/04/05 00:28:58;;;;;;;;;;;6.40;91.30;7.00;99827.00;;;;342172;28;86982;-91
2023/04/05 00:29:10;;;;;;;;;;;6.40;91.30;7.00;99836.00;;;;339702;28;88481;-92
2023/04/05 00:29:22;;;;;;;;;;;6.40;91.30;6.90;99830.00;;;;339441;28;86903;-92
2023/04/05 00:29:34;;;;;;;;;;;6.50;91.20;6.90;99826.00;;;;339698;28;89730;-91
2023/04/05 00:29:46;;;;;;;;;;;6.40;91.10;6.90;99836.00;;;;336885;28;86053;-93
2023/04/05 00:29:58;;;;;;;;;;;6.40;91.10;6.90;99833.00;;;;339656;28;88823;-91
2023/04/05 00:30:10;;;;;;;;;;;6.40;91.10;6.90;99833.00;;;;339460;28;88313;-91
2023/04/05 00:30:22;;;;;;;;;;;6.40;91.10;6.90;99827.00;;;;338151;28;90512;-91
2023/04/05 00:30:35;;;;;;;;;;;6.40;91.10;6.80;99829.00;;;;339202;28;86168;-92
2023/04/05 00:30:46;;;;;;;;;;;6.40;91.30;6.80;99834.00;;;;338361;28;87382;-92
2023/04/05 00:30:58;;;;;;;;;;;6.40;91.30;6.80;99829.00;;;;340729;28;86345;-90
2023/04/05 00:31:10;;;;;;;;;;;6.40;91.30;6.90;99833.00;;;;336762;28;90508;-91
2023/04/05 00:31:22;;;;;;;;;;;6.40;91.30;6.80;99824.00;;;;339411;28;86885;-91
2023/04/05 00:31:34;;;;;;;;;;;6.40;91.40;6.90;99833.00;;;;343467;28;89366;-91
2023/04/05 00:31:46;;;;;;;;;;;6.40;91.40;6.90;99822.00;;;;339318;28;86878;-91
2023/04/05 00:31:58;;;;;;;;;;;6.40;91.40;6.90;99834.00;;;;336882;28;89943;-91
2023/04/05 00:32:10;;;;;;;;;;;6.40;91.40;6.90;99829.00;;;;339179;28;86975;-92
2023/04/05 00:32:22;;;;;;;;;;;6.40;91.30;6.90;99826.00;;;;341053;28;87745;-90
2023/04/05 00:32:35;;;;;;;;;;;6.40;91.50;6.90;99831.00;;;;336919;28;87827;-91
2023/04/05 00:32:48;;;;;;;;;;;6.40;91.30;6.90;99827.00;;;;337238;28;89067;-91
2023/04/05 00:33:00;;;;;;;;;;;6.40;91.30;6.90;99825.00;;;;340980;28;86223;-91
2023/04/05 00:33:12;;;;;;;;;;;6.40;91.20;6.90;99827.00;;;;339475;28;89041;-91
2023/04/05 00:33:24;;;;;;;;;;;6.40;91.20;6.90;99833.00;;;;339355;28;86148;-91
2023/04/05 00:33:36;;;;;;;;;;;6.40;91.20;7.00;99827.00;;;;336981;28;88600;-91
2023/04/05 00:33:48;;;;;;;;;;;6.30;91.30;7.00;99822.00;;;;342187;28;86605;-91
2023/04/05 00:34:00;;;;;;;;;;;6.40;91.30;6.90;99822.00;;;;339673;28;90849;-91
2023/04/05 00:34:12;;;;;;;;;;;6.40;91.30;6.90;99824.00;;;;338164;28;86072;-91
2023/04/05 00:34:24;;;;;;;;;;;6.40;91.30;7.00;99829.00;;;;338077;28;88353;-91
2023/04/05 00:34:37;;;;;;;;;;;6.40;91.30;7.00;99826.00;;;;335092;28;87374;-91
2023/04/05 00:34:49;;;;;;;;;;;6.40;91.30;7.00;99826.00;;;;337929;28;89690;-91
2023/04/05 00:35:01;;;;;;;;;;;6.40;91.40;7.00;99823.00;;;;341943;28;86912;-91
2023/04/05 00:35:13;;;;;;;;;;;6.40;91.40;6.90;99828.00;;;;335272;28;90282;-91
2023/04/05 00:35:27;;;;;;;;;;;6.40;91.30;6.80;99829.00;;;;337801;28;87045;-91
2023/04/05 00:35:40;;;;;;;;;;;6.40;91.30;6.80;99826.00;;;;339206;28;89687;-91
2023/04/05 00:35:52;;;;;;;;;;;6.40;91.20;6.70;99827.00;;;;336356;28;87025;-91
2023/04/05 00:36:22;;;;;;;;;;;6.30;91.30;6.90;99841.00;;;;338122;28;89976;-91
2023/04/05 00:36:34;;;;;;;;;;;6.40;91.50;6.90;99835.00;;;;340413;28;87223;-91
2023/04/05 00:36:46;;;;;;;;;;;6.40;91.40;6.90;99826.00;;;;339478;28;86999;-91
2023/04/05 00:36:58;;;;;;;;;;;6.30;91.30;6.90;99830.00;;;;337906;28;86118;-91
2023/04/05 00:37:10;;;;;;;;;;;6.30;91.40;6.90;99827.00;;;;340428;28;87813;-91
2023/04/05 00:37:22;;;;;;;;;;;6.40;91.40;6.90;99833.00;;;;337873;28;87071;-91
2023/04/05 00:37:34;;;;;;;;;;;6.40;91.40;6.90;99828.00;;;;337869;28;88343;-91
2023/04/05 00:37:46;;;;;;;;;;;6.30;91.40;6.80;99827.00;;;;338006;28;86060;-91
2023/04/05 00:37:58;;;;;;;;;;;6.30;91.30;6.80;99826.00;;;;336771;28;88457;-91
2023/04/05 00:38:10;;;;;;;;;;;6.30;91.30;6.90;99824.00;;;;339077;28;86087;-91
2023/04/05 00:38:22;;;;;;;;;;;6.30;91.40;6.80;99835.00;;;;339398;28;88765;-92
2023/04/05 00:38:34;;;;;;;;;;;6.30;91.40;6.80;99833.00;;;;339227;28;85521;-91
2023/04/05 00:38:46;;;;;;;;;;;6.30;91.40;6.80;99830.00;;;;338141;28;87949;-91
2023/04/05 00:38:58;;;;;;;;;;;6.30;91.40;6.70;99830.00;;;;337879;28;86116;-91
2023/04/05 00:39:10;;;;;;;;;;;6.30;91.40;6.70;99834.00;;;;340710;28;88852;-91
2023/04/05 00:39:22;;;;;;;;;;;6.30;91.40;6.80;99835.00;;;;340399;28;86917;-91
2023/04/05 00:39:33;;;;;;;;;;;6.20;91.40;6.80;99826.00;;;;336868;28;88868;-91
2023/04/05 00:39:45;;;;;;;;;;;6.30;91.40;6.90;99827.00;;;;337931;28;86814;-91
2023/04/05 00:39:57;;;;;;;;;;;6.30;91.50;6.90;99830.00;;;;335612;28;88877;-91
2023/04/05 00:40:09;;;;;;;;;;;6.30;91.60;6.90;99828.00;;;;337574;28;87332;-91
2023/04/05 00:40:22;;;;;;;;;;;6.30;91.60;6.90;99828.00;;;;339353;28;88532;-91
2023/04/05 00:40:35;;;;;;;;;;;6.30;91.60;6.90;99832.00;;;;335202;28;86626;-91
2023/04/05 00:40:47;;;;;;;;;;;6.30;91.60;6.90;99828.00;;;;337995;28;89051;-91
2023/04/05 00:40:58;;;;;;;;;;;6.30;91.50;6.90;99834.00;;;;340594;28;85971;-91
2023/04/05 00:41:10;;;;;;;;;;;6.40;91.50;6.80;99826.00;;;;339392;28;88404;-90
2023/04/05 00:41:22;;;;;;;;;;;6.30;91.50;6.90;99830.00;;;;339154;28;86613;-91
2023/04/05 00:41:35;;;;;;;;;;;6.40;91.50;6.90;99817.00;;;;336698;28;89997;-91
2023/04/05 00:41:49;;;;;;;;;;;6.40;91.40;6.80;99827.00;;;;338997;28;87012;-91
2023/04/05 00:42:03;;;;;;;;;;;6.30;91.40;6.60;99829.00;;;;340670;28;88967;-91
2023/04/05 00:42:15;;;;;;;;;;;6.30;91.40;6.60;99830.00;;;;337676;28;86987;-91
2023/04/05 00:42:26;;;;;;;;;;;6.20;91.40;6.50;99833.00;;;;336651;28;88806;-91
2023/04/05 00:42:38;;;;;;;;;;;6.20;91.40;6.60;99829.00;;;;339000;28;86703;-91
2023/04/05 00:42:50;;;;;;;;;;;6.20;91.40;6.50;99824.00;;;;340900;28;87470;-91
2023/04/05 00:43:02;;;;;;;;;;;6.20;91.50;6.60;99822.00;;;;340546;28;87011;-91
2023/04/05 00:43:14;;;;;;;;;;;6.20;91.50;6.70;99819.00;;;;338108;28;87369;-90
2023/04/05 00:43:26;;;;;;;;;;;6.20;91.60;6.70;99827.00;;;;341769;28;86825;-91
2023/04/05 00:43:37;;;;;;;;;;;6.20;91.60;6.80;99827.00;;;;340712;28;88786;-91
2023/04/05 00:43:50;;;;;;;;;;;6.20;91.60;6.80;99832.00;;;;336464;28;86808;-91
2023/04/05 00:44:02;;;;;;;;;;;6.20;91.60;6.80;99831.00;;;;336686;28;90642;-93
2023/04/05 00:44:14;;;;;;;;;;;6.20;91.60;6.80;99818.00;;;;338810;28;86177;-91
2023/04/05 00:44:27;;;;;;;;;;;6.20;91.60;6.60;99827.00;;;;340493;28;89922;-92
2023/04/05 00:44:39;;;;;;;;;;;6.20;91.60;6.60;99825.00;;;;340312;28;86910;-92
2023/04/05 00:44:51;;;;;;;;;;;6.20;91.60;6.70;99829.00;;;;339519;28;86568;-92
2023/04/05 00:45:03;;;;;;;;;;;6.20;91.50;6.70;99826.00;;;;337640;28;87084;-92
2023/04/05 00:45:16;;;;;;;;;;;6.20;91.50;6.70;99826.00;;;;341942;28;88749;-92
2023/04/05 00:45:27;;;;;;;;;;;6.20;91.50;6.70;99825.00;;;;340493;28;86855;-92
2023/04/05 00:45:41;;;;;;;;;;;6.20;91.50;6.80;99836.00;;;;338071;28;87359;-92
2023/04/05 00:45:53;;;;;;;;;;;6.20;91.60;6.70;99833.00;;;;338878;28;87114;-93
2023/04/05 00:46:05;;;;;;;;;;;6.20;91.60;6.60;99835.00;;;;339466;28;86652;-94
2023/04/05 00:46:17;;;;;;;;;;;6.20;91.80;6.60;99834.00;;;;336498;28;86811;-92
2023/04/05 00:46:29;;;;;;;;;;;6.20;91.60;6.70;99829.00;;;;338028;28;88743;-92
2023/04/05 00:46:41;;;;;;;;;;;6.20;91.60;6.70;99822.00;;;;337362;28;86343;-92
2023/04/05 00:46:54;;;;;;;;;;;6.20;91.60;6.70;99820.00;;;;335494;29;86989;-92
2023/04/05 00:47:08;;;;;;;;;;;6.20;91.60;6.70;99825.00;;;;338919;28;86840;-93
2023/04/05 00:47:20;;;;;;;;;;;6.20;91.60;6.70;99821.00;;;;339377;28;87691;-92
2023/04/05 00:47:32;;;;;;;;;;;6.20;91.50;6.70;99826.00;;;;335067;28;86998;-92
2023/04/05 00:47:44;;;;;;;;;;;6.20;91.50;6.60;99825.00;;;;339212;28;90230;-93
2023/04/05 00:47:56;;;;;;;;;;;6.20;91.60;6.70;99827.00;;;;340402;28;86964;-92
2023/04/05 00:48:08;;;;;;;;;;;6.10;91.50;6.70;99826.00;;;;339289;28;88856;-92
2023/04/05 00:48:20;;;;;;;;;;;6.20;91.50;6.70;99826.00;;;;340289;28;87170;-93
2023/04/05 00:48:32;;;;;;;;;;;6.20;91.50;6.60;99826.00;;;;337909;28;90093;-92
2023/04/05 00:48:44;;;;;;;;;;;6.20;91.50;6.60;99825.00;;;;339407;28;85803;-93
2023/04/05 00:48:56;;;;;;;;;;;6.20;91.50;6.60;99828.00;;;;340637;28;87063;-92
2023/04/05 00:49:08;;;;;;;;;;;6.20;91.50;6.50;99827.00;;;;340377;28;87056;-91
2023/04/05 00:49:20;;;;;;;;;;;6.20;91.60;6.50;99824.00;;;;338216;28;88964;-92
2023/04/05 00:49:32;;;;;;;;;;;6.20;91.60;6.60;99826.00;;;;340472;28;86921;-92
2023/04/05 00:49:44;;;;;;;;;;;6.10;91.60;6.70;99821.00;;;;340741;28;87803;-92
2023/04/05 00:49:56;;;;;;;;;;;6.10;91.60;6.60;99826.00;;;;339131;28;86972;-92
2023/04/05 00:50:10;;;;;;;;;;;6.10;91.60;6.60;99819.00;;;;340617;28;89796;-92
2023/04/05 00:50:22;;;;;;;;;;;6.10;91.60;6.60;99823.00;;;;337880;28;86909;-92
2023/04/05 00:50:33;;;;;;;;;;;6.10;91.60;6.60;99820.00;;;;334041;29;88815;-93
2023/04/05 00:50:47;;;;;;;;;;;6.10;91.70;6.60;99813.00;;;;335358;29;85978;-92
2023/04/05 00:51:00;;;;;;;;;;;6.10;91.60;6.60;99826.00;;;;338203;28;88179;-92
2023/04/05 00:51:12;;;;;;;;;;;6.10;91.60;6.60;99813.00;;;;336283;28;87129;-92
2023/04/05 00:51:24;;;;;;;;;;;6.10;91.60;6.50;99826.00;;;;340845;28;86279;-92
2023/04/05 00:51:36;;;;;;;;;;;6.10;91.60;6.60;99819.00;;;;339018;28;86715;-93
2023/04/05 00:51:48;;;;;;;;;;;6.10;91.70;6.70;99817.00;;;;339590;28;88915;-92
2023/04/05 00:52:00;;;;;;;;;;;6.10;91.70;6.70;99819.00;;;;340131;28;87431;-92
2023/04/05 00:52:13;;;;;;;;;;;6.10;91.70;6.70;99826.00;;;;338016;28;88938;-92
2023/04/05 00:52:25;;;;;;;;;;;6.10;91.60;6.70;99818.00;;;;337729;28;86192;-91
2023/04/05 00:52:38;;;;;;;;;;;6.10;91.60;6.70;99822.00;;;;337947;28;90086;-90
2023/04/05 00:52:50;;;;;;;;;;;6.10;91.80;6.60;99834.00;;;;340359;28;86288;-91
2023/04/05 00:53:01;;;;;;;;;;;6.10;91.70;6.60;99828.00;;;;339670;28;86625;-91
2023/04/05 00:53:14;;;;;;;;;;;6.10;91.80;6.70;99827.00;;;;339118;28;87224;-91
2023/04/05 00:53:26;;;;;;;;;;;6.10;91.80;6.70;99820.00;;;;336873;28;87927;-91
2023/04/05 00:53:39;;;;;;;;;;;6.10;91.80;6.70;99821.00;;;;337739;28;87081;-92
2023/04/05 00:53:51;;;;;;;;;;;6.10;91.80;6.60;99826.00;;;;339235;28;88686;-92
2023/04/05 00:54:03;;;;;;;;;;;6.10;91.90;6.70;99820.00;;;;340656;28;86069;-91
2023/04/05 00:54:15;;;;;;;;;;;6.10;91.90;6.60;99824.00;;;;339339;28;87607;-91
2023/04/05 00:54:28;;;;;;;;;;;6.10;91.90;6.70;99818.00;;;;333880;29;86762;-90
2023/04/05 00:54:42;;;;;;;;;;;6.10;91.80;6.70;99829.00;;;;338201;28;88859;-92
2023/04/05 00:54:53;;;;;;;;;;;6.10;91.90;6.60;99823.00;;;;337959;28;85434;-91
2023/04/05 00:55:06;;;;;;;;;;;6.10;91.80;6.50;99818.00;;;;334174;28;86988;-92
2023/04/05 00:55:18;;;;;;;;;;;6.10;91.90;6.60;99821.00;;;;340604;28;86891;-92
2023/04/05 00:55:32;;;;;;;;;;;6.10;91.90;6.60;99818.00;;;;340828;28;88024;-92
2023/04/05 00:55:47;;;;;;;;;;;6.10;91.90;6.60;99827.00;;;;335150;29;87085;-92
2023/04/05 00:56:00;;;;;;;;;;;6.10;91.90;6.70;99812.00;;;;336928;28;86430;-92
2023/04/05 00:56:12;;;;;;;;;;;6.10;91.90;6.60;99828.00;;;;337708;28;86994;-92
2023/04/05 00:56:24;;;;;;;;;;;6.10;91.90;6.70;99826.00;;;;338155;28;88121;-92
2023/04/05 00:56:35;;;;;;;;;;;6.10;91.90;6.60;99808.00;;;;341947;28;86973;-92
2023/04/05 00:56:47;;;;;;;;;;;6.10;91.90;6.60;99812.00;;;;340332;28;87472;-92
2023/04/05 00:56:59;;;;;;;;;;;6.10;91.90;6.60;99818.00;;;;340871;28;86044;-92
2023/04/05 00:57:11;;;;;;;;;;;6.10;91.90;6.60;99813.00;;;;336748;28;86877;-92
2023/04/05 00:57:23;;;;;;;;;;;6.10;91.90;6.70;99820.00;;;;339210;28;85993;-91
2023/04/05 00:57:38;;;;;;;;;;;6.10;92.10;6.70;99813.00;;;;339602;28;88089;-92
2023/04/05 00:57:50;;;;;;;;;;;6.10;91.80;6.70;99817.00;;;;340913;28;85939;-90
2023/04/05 00:58:02;;;;;;;;;;;6.10;91.80;6.70;99819.00;;;;342200;28;88492;-92
2023/04/05 00:58:18;;;;;;;;;;;6.10;91.80;6.60;99813.00;;;;341934;28;86958;-92
2023/04/05 00:58:30;;;;;;;;;;;6.10;91.80;6.60;99823.00;;;;339579;28;87552;-92
2023/04/05 00:58:42;;;;;;;;;;;6.10;91.70;6.70;99818.00;;;;336527;28;87139;-91
2023/04/05 00:58:54;;;;;;;;;;;6.10;91.70;6.70;99819.00;;;;339702;28;88003;-91
2023/04/05 00:59:06;;;;;;;;;;;6.10;91.70;6.80;99812.00;;;;339356;28;86087;-92
2023/04/05 00:59:18;;;;;;;;;;;6.10;91.70;6.70;99811.00;;;;337880;28;89163;-92
2023/04/05 00:59:30;;;;;;;;;;;6.10;91.70;6.70;99809.00;;;;337779;28;85902;-92
2023/04/05 00:59:42;;;;;;;;;;;6.10;91.70;6.70;99822.00;;;;339323;28;87751;-92
2023/04/05 00:59:57;;;;;;;;;;;6.10;91.70;6.60;99813.00;;;;337500;28;87048;-92
2023/04/05 01:00:10;;;;;;;;;;;6.10;91.70;6.60;99822.00;;;;337914;28;88753;-92
2023/04/05 01:00:23;;;;;;;;;;;6.10;91.70;6.50;99823.00;;;;337752;28;86329;-92
2023/04/05 01:00:38;;;;;;;;;;;6.10;91.80;6.50;99829.00;;;;336593;28;88609;-91
2023/04/05 01:01:08;;;;;;;;;;;6.10;91.80;6.70;99828.00;;;;338128;28;87024;-92
2023/04/05 01:01:21;;;;;;;;;;;6.10;91.80;6.50;99831.00;;;;337920;28;88913;-92
2023/04/05 01:01:33;;;;;;;;;;;6.10;91.80;6.60;99831.00;;;;335470;29;86107;-91
2023/04/05 01:01:54;;;;;;;;;;;6.10;91.80;6.60;99825.00;;;;335352;28;89251;-92
2023/04/05 01:02:31;;;;;;;;;;;6.10;91.80;6.60;99835.00;;;;340934;28;86744;-92
2023/04/05 01:02:48;;;;;;;;;;;6.10;91.70;6.60;99823.00;;;;340830;28;87420;-92
2023/04/05 01:03:00;;;;;;;;;;;6.10;91.70;6.60;99825.00;;;;340662;28;86227;-91
2023/04/05 01:03:12;;;;;;;;;;;6.10;91.70;6.60;99822.00;;;;336668;28;86556;-92
2023/04/05 01:03:26;;;;;;;;;;;6.10;91.70;6.60;99820.00;;;;340751;28;86942;-91
2023/04/05 01:03:40;;;;;;;;;;;6.10;91.70;6.60;99820.00;;;;336857;28;88540;-92
2023/04/05 01:03:53;;;;;;;;;;;6.10;91.80;6.50;99824.00;;;;337994;28;86092;-92
2023/04/05 01:04:06;;;;;;;;;;;6.10;91.80;6.50;99831.00;;;;342218;28;87152;-92
2023/04/05 01:04:20;;;;;;;;;;;6.10;91.80;6.60;99818.00;;;;340607;28;86012;-92
2023/04/05 01:04:35;;;;;;;;;;;6.10;91.80;6.60;99822.00;;;;339570;28;90540;-91
2023/04/05 01:04:50;;;;;;;;;;;6.10;91.80;6.60;99824.00;;;;338159;28;87526;-91
2023/04/05 01:05:04;;;;;;;;;;;6.10;91.80;6.60;99825.00;;;;339798;28;88893;-92
2023/04/05 01:05:35;;;;;;;;;;;6.10;91.80;6.60;99831.00;;;;339188;28;87062;-91